Time;durP1;ratioP1;P1;durP2;ratioP2;P2;SDS_P1;SDS_P2;PMS_P1;PMS_P2;Temp;Humidity;BMP_temperature;BMP_pressure;BME280_temperature;BME280_humidity;BME280_pressure;Samples;Min_cycle;Max_cycle;Signal;HPM_P1;HPM_P2
2023/08/30 00:00:10;;;;;;;8.55;4.47;;;;;;;15.14;100.00;100719.03;5071163;28;20471;-75
2023/08/30 00:02:36;;;;;;;7.22;4.40;;;;;;;15.17;100.00;100706.13;5067235;28;20211;-75
2023/08/30 00:05:03;;;;;;;7.40;4.40;;;;;;;15.14;100.00;100716.22;5072314;28;20399;-75
2023/08/30 00:07:29;;;;;;;8.80;4.43;;;;;;;14.94;100.00;100706.66;5065913;28;20395;-75
2023/08/30 00:09:54;;;;;;;8.90;4.43;;;;;;;14.94;100.00;100703.84;5067130;28;20035;-76
2023/08/30 00:12:21;;;;;;;10.77;4.30;;;;;;;14.96;100.00;100698.59;5080814;22;20474;-83
2023/08/30 00:14:47;;;;;;;7.10;4.45;;;;;;;15.02;100.00;100699.78;5023960;28;20041;-83
2023/08/30 00:17:12;;;;;;;7.90;4.57;;;;;;;15.10;100.00;100695.69;5022782;28;20071;-83
2023/08/30 00:19:37;;;;;;;6.70;4.43;;;;;;;15.00;100.00;100691.72;5024608;28;20029;-83
2023/08/30 00:22:03;;;;;;;4.80;3.65;;;;;;;15.11;100.00;100691.66;5031766;28;20041;-83
2023/08/30 00:24:28;;;;;;;7.03;4.68;;;;;;;15.14;100.00;100690.84;5031302;28;20033;-83
2023/08/30 00:26:54;;;;;;;9.77;4.90;;;;;;;14.98;100.00;100682.88;5028526;28;20087;-82
2023/08/30 00:29:19;;;;;;;6.60;4.63;;;;;;;15.00;100.00;100693.75;5037784;28;20068;-82
2023/08/30 00:31:45;;;;;;;6.82;4.35;;;;;;;15.06;100.00;100678.00;5016653;28;20018;-82
2023/08/30 00:34:10;;;;;;;9.13;5.13;;;;;;;15.01;100.00;100687.72;5008288;28;20033;-83
2023/08/30 00:36:35;;;;;;;7.32;4.05;;;;;;;15.14;100.00;100682.38;5019708;28;20112;-82
2023/08/30 00:39:02;;;;;;;7.45;4.57;;;;;;;15.13;100.00;100683.56;5002738;28;20392;-83
2023/08/30 00:41:28;;;;;;;8.15;4.82;;;;;;;15.15;100.00;100692.44;5022623;28;20039;-83
2023/08/30 00:43:53;;;;;;;8.50;5.03;;;;;;;15.14;100.00;100684.41;5029048;28;20022;-83
2023/08/30 00:46:19;;;;;;;5.97;3.90;;;;;;;15.15;100.00;100683.97;5023499;28;20032;-82
2023/08/30 00:48:44;;;;;;;5.13;4.00;;;;;;;15.11;100.00;100683.19;5027297;28;20029;-83
2023/08/30 00:51:10;;;;;;;9.18;5.47;;;;;;;14.98;100.00;100687.72;5007562;28;20124;-82
2023/08/30 00:53:36;;;;;;;7.40;4.63;;;;;;;15.07;100.00;100668.31;5028788;28;20505;-83
2023/08/30 00:56:01;;;;;;;10.10;4.88;;;;;;;15.02;100.00;100663.94;5023614;28;20051;-83
2023/08/30 00:58:27;;;;;;;5.97;4.65;;;;;;;15.11;100.00;100680.38;5014934;28;20505;-83
2023/08/30 01:00:53;;;;;;;8.10;4.63;;;;;;;15.13;100.00;100677.94;5019256;28;20125;-83
2023/08/30 01:03:21;;;;;;;9.10;4.00;;;;;;;15.11;100.00;100680.38;5015558;28;20071;-83
2023/08/30 01:05:47;;;;;;;8.15;4.35;;;;;;;15.09;100.00;100677.16;5008737;28;20061;-83
2023/08/30 01:08:12;;;;;;;10.07;4.15;;;;;;;15.08;100.00;100686.84;5025871;28;20078;-83
2023/08/30 01:10:58;;;;;;;6.25;4.47;;;;;;;15.00;100.00;100680.47;5023682;28;20033;-83
2023/08/30 01:13:27;;;;;;;8.77;3.88;;;;;;;15.00;100.00;100674.03;5019708;28;20048;-83
2023/08/30 01:15:54;;;;;;;6.65;4.57;;;;;;;14.97;100.00;100681.28;5023222;28;20029;-83
2023/08/30 01:18:25;;;;;;;8.02;4.63;;;;;;;14.86;100.00;100674.13;5027409;28;20059;-83
2023/08/30 01:20:52;;;;;;;6.50;4.25;;;;;;;14.82;100.00;100672.13;5021337;28;20500;-83
2023/08/30 01:23:28;;;;;;;7.03;4.30;;;;;;;14.90;100.00;100674.88;5024305;28;20033;-83
2023/08/30 01:25:58;;;;;;;10.15;5.55;;;;;;;14.89;100.00;100674.09;5024087;28;20039;-83
2023/08/30 01:28:26;;;;;;;8.93;5.32;;;;;;;14.89;100.00;100674.09;5005280;28;20032;-83
2023/08/30 01:30:55;;;;;;;7.07;4.50;;;;;;;14.91;100.00;100666.03;5022552;28;20685;-83
2023/08/30 01:33:22;;;;;;;11.35;5.18;;;;;;;14.89;100.00;100662.03;5020618;28;20424;-83
2023/08/30 01:35:48;;;;;;;7.13;5.00;;;;;;;14.91;100.00;100665.25;5025149;28;20392;-83
2023/08/30 01:38:14;;;;;;;9.73;4.68;;;;;;;14.95;100.00;100666.81;5002193;28;20033;-82
2023/08/30 01:40:42;;;;;;;6.80;4.60;;;;;;;14.96;100.00;100662.75;5021100;28;20226;-82
2023/08/30 01:43:08;;;;;;;7.88;4.47;;;;;;;15.00;100.00;100657.91;5020716;28;20060;-83
2023/08/30 01:45:40;;;;;;;7.82;4.90;;;;;;;15.01;100.00;100658.69;5023201;28;20738;-82
2023/08/30 01:48:09;;;;;;;7.33;5.20;;;;;;;14.94;100.00;100658.75;5005658;28;20152;-82
2023/08/30 01:50:34;;;;;;;7.13;4.43;;;;;;;14.97;100.00;100657.94;5020999;28;20283;-81
2023/08/30 01:53:00;;;;;;;8.48;4.55;;;;;;;14.92;100.00;100652.75;5019855;28;20029;-82
2023/08/30 01:55:28;;;;;;;7.90;5.43;;;;;;;14.96;100.00;100650.69;5017654;28;20512;-82
2023/08/30 01:57:53;;;;;;;7.63;4.95;;;;;;;14.90;100.00;100646.72;5018729;28;20412;-83
2023/08/30 02:00:18;;;;;;;12.43;5.32;;;;;;;14.90;100.00;100649.53;5023559;28;20041;-84
2023/08/30 02:02:44;;;;;;;7.25;4.80;;;;;;;14.94;100.00;100647.50;4997224;28;20057;-82
2023/08/30 02:05:12;;;;;;;9.75;5.38;;;;;;;14.89;100.00;100648.72;5019878;28;20040;-85
2023/08/30 02:07:42;;;;;;;7.22;4.47;;;;;;;14.85;100.00;100645.13;5019669;28;20033;-84
2023/08/30 02:10:11;;;;;;;7.95;5.03;;;;;;;14.84;100.00;100641.53;5020677;28;20033;-84
2023/08/30 02:12:46;;;;;;;7.50;4.78;;;;;;;14.76;100.00;100631.50;5019789;28;20398;-82
2023/08/30 02:15:13;;;;;;;9.60;4.82;;;;;;;14.74;100.00;100627.50;5021623;28;20397;-82
2023/08/30 02:17:38;;;;;;;7.43;4.55;;;;;;;14.69;100.00;100628.72;5001626;28;20432;-83
2023/08/30 02:20:09;;;;;;;8.02;4.60;;;;;;;14.69;100.00;100625.91;5022744;28;20029;-82
2023/08/30 02:22:36;;;;;;;9.60;4.72;;;;;;;14.77;100.00;100623.84;5023348;28;20462;-82
2023/08/30 02:25:04;;;;;;;7.30;4.90;;;;;;;14.70;100.00;100621.91;5020013;28;20037;-82
2023/08/30 02:27:31;;;;;;;8.05;4.95;;;;;;;14.67;100.00;100628.34;5019955;28;20025;-82
2023/08/30 02:29:56;;;;;;;5.93;4.40;;;;;;;14.75;100.00;100627.09;5017820;28;20385;-82
2023/08/30 02:32:22;;;;;;;10.38;5.93;;;;;;;14.72;100.00;100627.91;5023247;28;20033;-82
2023/08/30 02:34:50;;;;;;;8.48;4.30;;;;;;;14.70;100.00;100630.34;5022156;28;20473;-82
2023/08/30 02:37:16;;;;;;;6.25;4.35;;;;;;;14.67;100.00;100628.34;5025920;28;20417;-82
2023/08/30 02:39:41;;;;;;;9.13;4.93;;;;;;;14.68;100.00;100624.31;5024811;28;20029;-83
2023/08/30 02:42:06;;;;;;;9.23;4.35;;;;;;;14.68;100.00;100624.31;5021182;28;20504;-82
2023/08/30 02:44:32;;;;;;;8.23;5.30;;;;;;;14.67;100.00;100625.53;5024684;28;20025;-82
2023/08/30 02:46:57;;;;;;;9.20;5.30;;;;;;;14.62;100.00;100626.75;5008343;28;20029;-82
2023/08/30 02:49:22;;;;;;;7.68;5.03;;;;;;;14.68;100.00;100618.69;5021453;28;20379;-82
2023/08/30 02:51:48;;;;;;;9.02;5.45;;;;;;;14.70;100.00;100616.25;5021186;28;20083;-83
2023/08/30 02:54:13;;;;;;;8.65;4.82;;;;;;;14.72;100.00;100613.84;5026279;28;20478;-82
2023/08/30 02:56:42;;;;;;;7.72;5.00;;;;;;;14.67;100.00;100607.81;5021196;28;20071;-82
2023/08/30 02:59:07;;;;;;;11.25;5.50;;;;;;;14.66;100.00;100609.06;5024093;28;20537;-82
2023/08/30 03:01:33;;;;;;;10.40;5.80;;;;;;;14.57;100.00;100599.03;5000430;28;20121;-82
2023/08/30 03:03:58;;;;;;;6.70;4.93;;;;;;;14.47;100.00;100601.91;5015554;28;20053;-82
2023/08/30 03:06:23;;;;;;;9.38;5.57;;;;;;;14.53;100.00;100586.19;5023635;28;20489;-82
2023/08/30 03:08:49;;;;;;;10.05;6.38;;;;;;;14.51;100.00;100592.22;5019592;28;20036;-82
2023/08/30 03:11:14;;;;;;;11.23;6.30;;;;;;;14.55;100.00;100589.38;5023628;28;20140;-82
2023/08/30 03:13:39;;;;;;;11.52;6.47;;;;;;;14.53;100.00;100594.63;5003184;28;20521;-81
2023/08/30 03:16:12;;;;;;;10.52;5.75;;;;;;;14.55;100.00;100592.19;4999632;28;20026;-81
2023/08/30 03:18:38;;;;;;;11.50;6.93;;;;;;;14.49;100.00;100591.03;5023131;28;20037;-82
2023/08/30 03:21:03;;;;;;;9.43;5.97;;;;;;;14.34;100.00;100588.28;5016693;28;20044;-82
2023/08/30 03:23:31;;;;;;;9.82;5.80;;;;;;;14.35;100.00;100578.63;5022039;28;20029;-82
2023/08/30 03:25:56;;;;;;;10.00;5.93;;;;;;;14.30;100.00;100578.28;5005006;28;20040;-82
2023/08/30 03:28:22;;;;;;;12.73;6.10;;;;;;;14.17;100.00;100575.13;5023094;28;20484;-82
2023/08/30 03:30:47;;;;;;;7.85;5.35;;;;;;;14.23;100.00;100579.13;5011715;28;20060;-82
2023/08/30 03:33:13;;;;;;;9.38;6.00;;;;;;;14.09;100.00;100576.38;5000444;28;20114;-82
2023/08/30 03:35:38;;;;;;;9.20;5.68;;;;;;;14.17;100.00;100566.69;5022433;28;20031;-82
2023/08/30 03:38:04;;;;;;;10.65;5.80;;;;;;;14.17;100.00;100563.88;4998522;28;20465;-83
2023/08/30 03:40:30;;;;;;;9.98;5.93;;;;;;;14.18;100.00;100565.44;5017548;28;20546;-82
2023/08/30 03:42:55;;;;;;;8.65;5.38;;;;;;;14.31;100.00;100560.94;5013470;28;20123;-83
2023/08/30 03:45:20;;;;;;;13.10;7.35;;;;;;;14.03;100.00;100553.47;5020772;28;20113;-83
2023/08/30 03:47:46;;;;;;;8.32;6.10;;;;;;;14.14;100.00;100544.97;5002865;28;20433;-84
2023/08/30 03:50:11;;;;;;;10.18;6.35;;;;;;;14.15;100.00;100546.59;5020118;28;20036;-84
2023/08/30 03:52:37;;;;;;;11.30;6.25;;;;;;;14.15;100.00;100546.59;5018660;28;20038;-83
2023/08/30 03:55:02;;;;;;;10.68;6.13;;;;;;;14.21;100.00;100540.09;5022872;28;20041;-83
2023/08/30 03:57:28;;;;;;;10.93;5.80;;;;;;;14.27;100.00;100536.84;5000868;28;20040;-83
2023/08/30 03:59:53;;;;;;;10.82;6.97;;;;;;;14.19;100.00;100531.28;5017210;28;20165;-83
2023/08/30 04:02:19;;;;;;;9.73;5.55;;;;;;;14.14;100.00;100528.06;4998808;28;20037;-83
2023/08/30 04:04:47;;;;;;;9.90;6.32;;;;;;;14.05;100.00;100513.66;5023442;28;20477;-84
2023/08/30 04:07:13;;;;;;;11.73;6.40;;;;;;;14.08;100.00;100518.47;4996231;28;20536;-83
2023/08/30 04:09:38;;;;;;;10.55;6.97;;;;;;;14.09;100.00;100520.09;5020016;28;20068;-85
2023/08/30 04:12:04;;;;;;;10.90;6.18;;;;;;;13.94;100.00;100522.16;5018556;28;20116;-84
2023/08/30 04:14:30;;;;;;;10.25;6.75;;;;;;;14.10;100.00;100521.66;5008514;28;20062;-84
2023/08/30 04:16:55;;;;;;;9.90;5.60;;;;;;;14.21;100.00;100514.78;4992182;28;20150;-83
2023/08/30 04:19:21;;;;;;;11.60;7.13;;;;;;;14.11;100.00;100514.84;5024315;28;20029;-83
2023/08/30 04:21:46;;;;;;;12.07;6.72;;;;;;;13.99;100.00;100516.91;5023381;28;20421;-83
2023/08/30 04:24:12;;;;;;;10.88;6.55;;;;;;;14.21;100.00;100511.16;5021848;28;20029;-84
2023/08/30 04:26:37;;;;;;;11.30;6.30;;;;;;;14.00;100.00;100506.47;5015532;28;20045;-83
2023/08/30 04:29:03;;;;;;;12.75;7.35;;;;;;;14.01;100.00;100511.66;5024379;28;20533;-83
2023/08/30 04:31:28;;;;;;;12.25;7.10;;;;;;;14.05;100.00;100502.41;5020029;28;20029;-83
2023/08/30 04:33:55;;;;;;;12.55;7.25;;;;;;;14.16;100.00;100500.31;5018032;28;20049;-84
2023/08/30 04:36:20;;;;;;;15.50;6.75;;;;;;;14.08;100.00;100496.75;5020711;28;20030;-84
2023/08/30 04:38:46;;;;;;;15.23;8.15;;;;;;;14.21;100.00;100499.91;5006314;28;20029;-83
2023/08/30 04:41:12;;;;;;;15.48;6.88;;;;;;;14.21;100.00;100495.06;5016431;28;20120;-83
2023/08/30 04:43:37;;;;;;;15.88;7.85;;;;;;;14.04;100.00;100490.38;4997432;28;20116;-84
2023/08/30 04:46:02;;;;;;;12.82;7.35;;;;;;;14.15;100.00;100501.56;5018664;28;20086;-84
2023/08/30 04:48:28;;;;;;;15.02;7.43;;;;;;;14.09;100.00;100486.31;5020022;28;20216;-84
2023/08/30 04:51:04;;;;;;;15.05;7.45;;;;;;;14.10;100.00;100501.97;5004135;28;20040;-83
2023/08/30 04:53:30;;;;;;;13.32;7.00;;;;;;;14.03;100.00;100505.63;5020399;28;20060;-83
2023/08/30 04:55:56;;;;;;;16.95;8.43;;;;;;;14.12;100.00;100499.53;5005043;28;20115;-82
2023/08/30 04:58:21;;;;;;;12.95;7.70;;;;;;;14.11;100.00;100504.38;5025847;28;20382;-82
2023/08/30 05:00:46;;;;;;;9.77;6.72;;;;;;;14.13;100.00;100501.16;5021244;28;20026;-82
2023/08/30 05:03:12;;;;;;;12.30;7.28;;;;;;;14.14;100.00;100488.69;5007488;28;20048;-82
2023/08/30 05:05:37;;;;;;;11.73;6.82;;;;;;;14.14;100.00;100494.31;5022934;28;20474;-84
2023/08/30 05:08:03;;;;;;;17.17;7.72;;;;;;;14.17;100.00;100499.91;5021619;28;20099;-82
2023/08/30 05:10:29;;;;;;;12.05;7.70;;;;;;;14.25;100.00;100495.03;5023711;28;20646;-84
2023/08/30 05:12:54;;;;;;;12.52;7.78;;;;;;;14.16;100.00;100497.50;5022308;28;20056;-82
2023/08/30 05:15:20;;;;;;;14.63;7.32;;;;;;;14.18;100.00;100483.81;5005473;28;20029;-83
2023/08/30 05:17:45;;;;;;;13.93;7.78;;;;;;;14.16;100.00;100492.69;5006890;28;20071;-83
2023/08/30 05:20:11;;;;;;;12.50;7.88;;;;;;;14.28;100.00;100482.94;5001994;28;20034;-83
2023/08/30 05:22:36;;;;;;;15.35;7.25;;;;;;;14.37;100.00;100490.94;5003013;28;20120;-83
2023/08/30 05:25:02;;;;;;;13.55;7.07;;;;;;;14.24;100.00;100485.78;5003798;28;20033;-83
2023/08/30 05:27:28;;;;;;;13.90;7.50;;;;;;;14.23;100.00;100486.22;4999643;28;20465;-83
2023/08/30 05:29:53;;;;;;;12.82;6.60;;;;;;;14.36;100.00;100478.88;5024495;28;20516;-83
2023/08/30 05:32:18;;;;;;;11.88;6.97;;;;;;;14.32;100.00;100480.91;5002449;28;20033;-83
2023/08/30 05:34:44;;;;;;;11.93;6.90;;;;;;;14.40;100.00;100485.28;5024217;28;20534;-83
2023/08/30 05:37:09;;;;;;;15.55;7.97;;;;;;;14.27;100.00;100489.78;5005317;28;20256;-83
2023/08/30 05:39:35;;;;;;;13.75;6.78;;;;;;;14.35;100.00;100485.69;5024987;28;20062;-83
2023/08/30 05:42:00;;;;;;;14.25;7.18;;;;;;;14.32;100.00;100474.50;5014264;28;20025;-83
2023/08/30 05:44:25;;;;;;;14.63;7.75;;;;;;;14.27;100.00;100470.06;5025159;28;21637;-83
2023/08/30 05:46:51;;;;;;;11.98;7.53;;;;;;;14.30;100.00;100477.72;5023771;28;20488;-83
2023/08/30 05:49:16;;;;;;;13.50;6.97;;;;;;;14.44;100.00;100474.78;5024418;28;20041;-84
2023/08/30 05:51:42;;;;;;;12.07;6.85;;;;;;;14.53;100.00;100476.34;5021297;28;20548;-81
2023/08/30 05:54:10;;;;;;;11.50;6.70;;;;;;;14.52;100.00;100477.53;5021626;28;20033;-83
2023/08/30 05:56:35;;;;;;;10.45;6.72;;;;;;;14.55;100.00;100471.09;5005733;28;20029;-86
2023/08/30 05:59:01;;;;;;;10.80;5.43;;;;;;;15.34;100.00;100473.13;5005460;28;20039;-90
2023/08/30 06:01:26;;;;;;;11.20;6.18;;;;;;;15.55;100.00;100460.78;5009475;28;20034;-89
2023/08/30 06:03:52;;;;;;;9.05;3.72;;;;;;;16.34;100.00;100470.97;5025369;28;20034;-88
2023/08/30 06:06:17;;;;;;;11.60;5.78;;;;;;;15.98;100.00;100460.22;5026225;28;20025;-87
2023/08/30 06:08:43;;;;;;;9.07;5.63;;;;;;;16.31;100.00;100458.53;5030801;28;20025;-88
2023/08/30 06:11:08;;;;;;;14.32;6.22;;;;;;;15.98;100.00;100463.88;5004635;28;20481;-89
2023/08/30 06:13:34;;;;;;;12.60;5.63;;;;;;;15.39;100.00;100459.38;4999751;28;20045;-89
2023/08/30 06:15:59;;;;;;;9.65;5.68;;;;;;;15.69;100.00;100459.81;5002142;28;20025;-89
2023/08/30 06:18:26;;;;;;;10.43;6.07;;;;;;;16.05;100.00;100463.75;5005780;28;20928;-88
2023/08/30 06:20:51;;;;;;;12.95;6.55;;;;;;;15.52;100.00;100459.63;5023368;28;20032;-89
2023/08/30 06:23:19;;;;;;;9.88;6.53;;;;;;;15.52;100.00;100456.81;5019392;28;20512;-89
2023/08/30 06:25:44;;;;;;;11.43;6.43;;;;;;;15.45;100.00;100452.06;5007284;28;20025;-87
2023/08/30 06:28:10;;;;;;;11.93;6.63;;;;;;;15.80;100.00;100452.03;5017333;28;20062;-88
2023/08/30 06:30:35;;;;;;;14.65;7.15;;;;;;;15.43;100.00;100448.88;4996432;28;20453;-88
2023/08/30 06:33:01;;;;;;;11.93;5.13;;;;;;;16.13;100.00;100460.81;5000277;28;20160;-88
2023/08/30 06:35:26;;;;;;;8.60;5.55;;;;;;;15.56;100.00;100451.13;4977902;28;20120;-87
2023/08/30 06:37:52;;;;;;;10.23;6.15;;;;;;;16.75;100.00;100445.28;5015497;28;20476;-89
2023/08/30 06:40:18;;;;;;;11.43;5.72;;;;;;;17.01;99.81;100440.81;5018957;28;20445;-87
2023/08/30 06:42:43;;;;;;;12.65;6.15;;;;;;;17.41;99.60;100448.47;5016520;28;20128;-84
2023/08/30 06:45:09;;;;;;;9.60;5.60;;;;;;;17.11;98.86;100441.81;5007816;28;20514;-83
2023/08/30 06:47:34;;;;;;;8.60;5.10;;;;;;;17.33;99.85;100444.19;5009779;28;20128;-83
2023/08/30 06:50:00;;;;;;;10.05;5.80;;;;;;;17.30;98.39;100437.41;5009330;28;20068;-84
2023/08/30 06:52:26;;;;;;;10.85;5.72;;;;;;;17.41;98.05;100442.81;5005020;28;20393;-83
2023/08/30 06:54:51;;;;;;;14.05;5.88;;;;;;;17.11;98.00;100438.19;5006766;28;20033;-84
2023/08/30 06:57:17;;;;;;;10.10;6.03;;;;;;;17.22;98.53;100418.97;5005630;28;20040;-83
2023/08/30 06:59:42;;;;;;;8.27;5.85;;;;;;;17.65;97.77;100433.03;5020619;28;20083;-83
2023/08/30 07:02:08;;;;;;;11.65;6.13;;;;;;;17.50;97.77;100448.72;5008806;28;20056;-83
2023/08/30 07:04:34;;;;;;;10.85;5.13;;;;;;;17.75;96.41;100421.88;5003631;28;20498;-83
2023/08/30 07:06:59;;;;;;;11.50;5.97;;;;;;;17.15;97.89;100417.09;5027639;28;20029;-84
2023/08/30 07:09:28;;;;;;;10.82;5.85;;;;;;;17.25;95.68;100418.91;5025154;28;20029;-83
2023/08/30 07:11:55;;;;;;;11.35;4.95;;;;;;;17.63;97.01;100412.84;5027775;28;20034;-84
2023/08/30 07:14:20;;;;;;;12.68;6.22;;;;;;;17.40;94.38;100421.44;5004018;28;20116;-84
2023/08/30 07:16:46;;;;;;;10.52;6.32;;;;;;;17.57;96.42;100422.28;5006411;28;20030;-84
2023/08/30 07:19:11;;;;;;;14.32;5.72;;;;;;;17.13;98.80;100398.97;5004255;28;20026;-83
2023/08/30 07:21:38;;;;;;;16.05;6.18;;;;;;;17.48;96.41;100403.09;5003160;28;20033;-83
2023/08/30 07:24:05;;;;;;;16.15;7.32;;;;;;;17.17;97.67;100397.66;5006257;28;20033;-83
2023/08/30 07:26:31;;;;;;;10.82;5.65;;;;;;;17.61;97.54;100412.50;5001609;28;20393;-83
2023/08/30 07:28:56;;;;;;;8.85;5.55;;;;;;;17.44;94.78;100411.63;4999057;28;20091;-83
2023/08/30 07:31:22;;;;;;;9.48;5.38;;;;;;;17.19;96.81;100400.84;5000411;28;20030;-83
2023/08/30 07:33:48;;;;;;;11.25;6.15;;;;;;;17.17;97.32;100400.47;5019507;28;20021;-84
2023/08/30 07:36:13;;;;;;;13.88;6.63;;;;;;;16.86;93.64;100400.69;5000568;28;20101;-84
2023/08/30 07:38:38;;;;;;;8.60;4.80;;;;;;;17.02;98.98;100402.00;5018963;28;20101;-84
2023/08/30 07:41:04;;;;;;;11.95;6.63;;;;;;;16.08;100.00;100390.72;4995036;28;20105;-84
2023/08/30 07:43:29;;;;;;;14.13;7.32;;;;;;;15.35;100.00;100390.94;4998113;28;20047;-84
2023/08/30 07:45:56;;;;;;;13.10;7.57;;;;;;;15.32;100.00;100391.00;4998135;28;20038;-83
2023/08/30 07:48:21;;;;;;;10.43;6.18;;;;;;;15.30;100.00;100387.78;4993799;28;20157;-87
2023/08/30 07:50:47;;;;;;;10.82;6.75;;;;;;;15.34;100.00;100388.53;4996304;28;20050;-87
2023/08/30 07:53:12;;;;;;;10.10;6.10;;;;;;;15.49;100.00;100380.69;5001555;28;20018;-83
2023/08/30 07:55:38;;;;;;;10.93;5.63;;;;;;;15.48;100.00;100381.94;4998586;28;20043;-81
2023/08/30 07:58:03;;;;;;;10.40;5.93;;;;;;;16.19;100.00;100382.88;4996085;28;20061;-82
2023/08/30 08:00:29;;;;;;;11.40;6.30;;;;;;;16.00;100.00;100385.22;5014626;28;20040;-79
2023/08/30 08:02:55;;;;;;;10.35;5.82;;;;;;;16.30;100.00;100392.00;5009165;28;20030;-79
2023/08/30 08:05:20;;;;;;;8.98;5.07;;;;;;;16.31;100.00;100382.28;4998022;28;20038;-81
2023/08/30 08:07:50;;;;;;;10.32;5.70;;;;;;;16.22;100.00;100391.28;5018437;28;20036;-80
2023/08/30 08:10:15;;;;;;;12.68;5.80;;;;;;;15.92;100.00;100394.22;4998092;28;20033;-79
2023/08/30 08:12:41;;;;;;;14.35;6.38;;;;;;;15.65;100.00;100383.69;5002030;28;20044;-79
2023/08/30 08:15:06;;;;;;;10.90;5.65;;;;;;;16.33;100.00;100402.41;5017355;28;20092;-79
2023/08/30 08:17:32;;;;;;;11.02;5.68;;;;;;;16.36;100.00;100407.22;5012348;28;20041;-80
2023/08/30 08:19:57;;;;;;;11.45;6.10;;;;;;;16.10;100.00;100399.56;5022882;28;20060;-79
2023/08/30 08:22:22;;;;;;;11.40;5.88;;;;;;;16.10;100.00;100402.41;5019819;28;20073;-80
2023/08/30 08:24:48;;;;;;;12.07;6.25;;;;;;;15.79;100.00;100405.28;5019839;28;20044;-81
2023/08/30 08:27:14;;;;;;;12.32;6.28;;;;;;;15.58;100.00;100398.69;5020662;28;20041;-80
2023/08/30 08:29:39;;;;;;;10.85;5.38;;;;;;;15.70;100.00;100413.44;5024769;28;20021;-81
2023/08/30 08:32:05;;;;;;;12.90;4.90;;;;;;;15.63;100.00;100406.69;5012549;28;20418;-80
2023/08/30 08:34:30;;;;;;;7.85;4.53;;;;;;;15.54;100.00;100400.78;5020595;28;20086;-80
2023/08/30 08:36:56;;;;;;;8.07;4.82;;;;;;;15.58;100.00;100404.34;5003610;28;20075;-82
2023/08/30 08:39:21;;;;;;;8.32;4.57;;;;;;;15.57;100.00;100401.94;5019315;28;20117;-81
2023/08/30 08:41:47;;;;;;;9.95;4.25;;;;;;;15.40;100.00;100392.50;5010351;28;20129;-80
2023/08/30 08:44:13;;;;;;;8.82;4.78;;;;;;;15.33;100.00;100386.97;5023393;28;20025;-80
2023/08/30 08:46:40;;;;;;;11.02;4.35;;;;;;;15.16;100.00;100392.41;5007683;28;20041;-81
2023/08/30 08:49:14;;;;;;;7.93;3.90;;;;;;;15.06;100.00;100396.13;4997534;28;20045;-81
2023/08/30 08:51:40;;;;;;;5.65;3.92;;;;;;;15.29;100.00;100391.84;5006054;28;20033;-81
2023/08/30 08:54:06;;;;;;;7.78;4.55;;;;;;;15.09;100.00;100389.66;5007445;28;20645;-81
2023/08/30 08:56:33;;;;;;;8.85;4.22;;;;;;;15.32;100.00;100385.34;5008100;28;20029;-80
2023/08/30 08:58:59;;;;;;;8.00;4.28;;;;;;;15.24;100.00;100379.81;5023262;28;20025;-80
2023/08/30 09:01:24;;;;;;;9.20;4.85;;;;;;;15.23;100.00;100392.28;5015760;28;20044;-80
2023/08/30 09:03:50;;;;;;;7.68;4.10;;;;;;;15.35;100.00;100373.25;5027120;28;20309;-80
2023/08/30 09:06:16;;;;;;;12.10;6.00;;;;;;;14.92;100.00;100379.38;5012406;28;20128;-79
2023/08/30 09:08:42;;;;;;;10.15;6.25;;;;;;;14.87;100.00;100379.84;4997633;28;20081;-79
2023/08/30 09:11:07;;;;;;;11.73;5.45;;;;;;;14.67;100.00;100374.81;5018179;28;20030;-80
2023/08/30 09:13:33;;;;;;;8.98;5.47;;;;;;;14.63;100.00;100368.41;5025610;28;20523;-81
2023/08/30 09:15:59;;;;;;;9.18;6.03;;;;;;;14.75;100.00;100376.34;5018713;28;20029;-80
2023/08/30 09:18:27;;;;;;;10.43;5.57;;;;;;;14.84;100.00;100367.38;5001614;28;20041;-80
2023/08/30 09:21:13;;;;;;;13.95;7.35;;;;;;;14.95;100.00;100361.66;4997594;28;20063;-80
2023/08/30 09:23:38;;;;;;;10.20;6.72;;;;;;;15.01;100.00;100359.94;5005874;28;20029;-80
2023/08/30 09:26:05;;;;;;;11.05;6.70;;;;;;;15.12;100.00;100355.00;5020479;28;20746;-80
2023/08/30 09:28:31;;;;;;;12.80;6.65;;;;;;;15.06;100.00;100359.50;5001625;28;20124;-80
2023/08/30 09:31:03;;;;;;;14.00;6.68;;;;;;;14.97;100.00;100359.22;5020391;28;20036;-80
2023/08/30 09:33:33;;;;;;;8.68;5.95;;;;;;;15.01;100.00;100359.94;5027822;28;20032;-80
2023/08/30 09:36:00;;;;;;;9.20;5.38;;;;;;;15.20;100.00;100359.31;5020751;28;20056;-85
2023/08/30 09:38:26;;;;;;;9.70;6.15;;;;;;;15.01;100.00;100351.50;5021786;28;20505;-84
2023/08/30 09:40:53;;;;;;;14.95;4.85;;;;;;;15.11;100.00;100355.41;5021854;28;20112;-83
2023/08/30 09:43:21;;;;;;;12.15;6.40;;;;;;;14.81;100.00;100354.94;5005777;28;20029;-84
2023/08/30 09:45:48;;;;;;;7.75;4.78;;;;;;;14.90;100.00;100343.16;5020813;28;20494;-85
2023/08/30 09:48:14;;;;;;;12.07;5.78;;;;;;;14.94;100.00;100340.31;5010614;28;20030;-84
2023/08/30 09:50:45;;;;;;;8.18;5.57;;;;;;;15.02;100.00;100341.84;5026220;28;20040;-85
2023/08/30 09:53:12;;;;;;;8.85;5.20;;;;;;;15.00;100.00;100347.09;5028060;28;20553;-86
2023/08/30 09:55:39;;;;;;;11.35;6.35;;;;;;;14.91;100.00;100338.34;5028107;28;20033;-85
2023/08/30 09:58:05;;;;;;;7.60;5.30;;;;;;;14.96;100.00;100340.69;5008555;28;20398;-85
2023/08/30 10:00:31;;;;;;;8.88;5.90;;;;;;;14.74;100.00;100338.13;5020677;28;20381;-85
2023/08/30 10:02:58;;;;;;;11.00;5.68;;;;;;;14.96;100.00;100340.69;5004804;28;20029;-84
2023/08/30 10:05:25;;;;;;;8.88;5.57;;;;;;;14.93;100.00;100333.88;5007319;28;20540;-86
2023/08/30 10:07:52;;;;;;;9.32;5.93;;;;;;;14.87;100.00;100329.94;5023792;28;20539;-84
2023/08/30 10:10:20;;;;;;;13.00;6.15;;;;;;;14.78;100.00;100327.63;5006122;28;20474;-85
2023/08/30 10:12:46;;;;;;;11.93;6.28;;;;;;;14.77;100.00;100323.19;5006939;28;20164;-81
2023/08/30 10:15:11;;;;;;;8.07;5.18;;;;;;;14.86;100.00;100322.69;5001384;28;20033;-82
2023/08/30 10:17:41;;;;;;;11.32;6.35;;;;;;;14.88;100.00;100333.53;5023631;28;20544;-82
2023/08/30 10:20:07;;;;;;;6.32;4.55;;;;;;;14.94;100.00;100326.22;5022190;28;20095;-82
2023/08/30 10:22:36;;;;;;;9.65;5.25;;;;;;;14.80;100.00;100322.38;5020638;28;20116;-82
2023/08/30 10:25:26;;;;;;;6.75;4.57;;;;;;;14.98;100.00;100327.78;5024337;28;20044;-82
2023/08/30 10:27:53;;;;;;;10.98;5.28;;;;;;;14.94;100.00;100329.03;5025519;28;20061;-81
2023/08/30 10:30:20;;;;;;;11.55;6.38;;;;;;;14.91;100.00;100322.25;5015740;28;20450;-83
2023/08/30 10:32:45;;;;;;;10.45;5.50;;;;;;;14.89;100.00;100318.25;5010023;28;20017;-82
2023/08/30 10:35:15;;;;;;;7.43;4.70;;;;;;;14.80;100.00;100311.09;5006494;28;20043;-82
2023/08/30 10:37:41;;;;;;;7.30;5.15;;;;;;;15.01;100.00;100312.03;5023833;28;20017;-82
2023/08/30 10:40:07;;;;;;;6.43;4.57;;;;;;;14.94;100.00;100309.31;5026316;28;20115;-84
2023/08/30 10:42:34;;;;;;;10.80;5.53;;;;;;;14.93;100.00;100314.16;5010648;28;20481;-80
2023/08/30 10:45:07;;;;;;;9.80;5.70;;;;;;;14.84;100.00;100303.41;5007074;28;20032;-82
2023/08/30 10:47:38;;;;;;;7.05;4.82;;;;;;;14.91;100.00;100301.72;4999018;28;20486;-84
2023/08/30 10:50:08;;;;;;;9.45;5.43;;;;;;;15.00;100.00;100308.41;5015882;28;20022;-83
2023/08/30 10:52:34;;;;;;;6.90;4.97;;;;;;;15.05;100.00;100293.06;5021760;28;20112;-82
2023/08/30 10:55:07;;;;;;;7.15;5.07;;;;;;;15.06;100.00;100305.94;5026639;28;20437;-82
2023/08/30 10:57:33;;;;;;;7.65;4.93;;;;;;;14.99;100.00;100298.38;5022399;28;20045;-82
2023/08/30 11:00:19;;;;;;;8.13;4.80;;;;;;;15.06;100.00;100303.13;5018818;28;20144;-81
2023/08/30 11:02:47;;;;;;;7.68;5.75;;;;;;;14.90;100.00;100303.72;5027536;28;20057;-80
2023/08/30 11:05:14;;;;;;;8.70;3.95;;;;;;;14.97;100.00;100297.22;5005571;28;20130;-81
2023/08/30 11:07:40;;;;;;;9.20;5.22;;;;;;;15.08;100.00;100292.22;5023031;28;20541;-81
2023/08/30 11:10:06;;;;;;;6.97;4.80;;;;;;;14.82;100.00;100297.38;5007151;28;20033;-81